Time,TemperatureF,DewpointF,PressureIn,WindDirection,WindDirectionDegrees,WindSpeedMPH,WindSpeedGustMPH,Humidity,HourlyPrecipIn,Conditions,Clouds,dailyrainin,SoftwareType,DateUTC
2013-01-24 00:01:00,23.8,10.0,30.41,NNW,344,10.0,19.0,56,0.00,,,0.00,weatherlink.com 1.10,2013-01-24 06:01:00,
2013-01-24 00:16:00,23.1,11.0,30.42,NNW,339,7.0,15.0,59,0.00,,,0.00,weatherlink.com 1.10,2013-01-24 06:16:00,
2013-01-24 00:31:00,22.7,10.0,30.43,North,355,14.0,16.0,58,0.00,,,0.00,weatherlink.com 1.10,2013-01-24 06:31:00,
2013-01-24 00:46:00,22.2,9.0,30.44,NNW,347,7.0,17.0,58,0.00,,,0.00,weatherlink.com 1.10,2013-01-24 06:46:00,
2013-01-24 01:01:00,21.7,10.0,30.45,NNW,338,8.0,14.0,60,0.00,,,0.00,weatherlink.com 1.10,2013-01-24 07:01:00,
2013-01-24 01:16:00,21.2,10.0,30.45,North,355,7.0,11.0,62,0.00,,,0.00,weatherlink.com 1.10,2013-01-24 07:16:00,
2013-01-24 01:31:00,20.6,9.0,30.46,North,355,5.0,13.0,61,0.00,,,0.00,weatherlink.com 1.10,2013-01-24 07:31:00,
2013-01-24 01:46:00,19.8,7.0,30.46,NNW,332,5.0,17.0,59,0.00,,,0.00,weatherlink.com 1.10,2013-01-24 07:46:00,
2013-01-24 02:02:00,19.2,7.0,30.47,NNE,13,4.0,11.0,60,0.00,,,0.00,weatherlink.com 1.10,2013-01-24 08:02:00,
2013-01-24 02:17:00,18.5,7.0,30.47,North,350,4.0,13.0,61,0.00,,,0.00,weatherlink.com 1.10,2013-01-24 08:17:00,
2013-01-24 02:32:00,17.9,7.0,30.49,North,355,7.0,14.0,62,0.00,,,0.00,weatherlink.com 1.10,2013-01-24 08:32:00,
2013-01-24 02:47:00,17.3,7.0,30.50,NNW,344,5.0,14.0,63,0.00,,,0.00,weatherlink.com 1.10,2013-01-24 08:47:00,
2013-01-24 03:02:00,16.7,7.0,30.50,North,355,9.0,12.0,65,0.00,,,0.00,weatherlink.com 1.10,2013-01-24 09:02:00,
2013-01-24 03:17:00,16.0,6.0,30.51,NE,35,6.0,13.0,65,0.00,,,0.00,weatherlink.com 1.10,2013-01-24 09:17:00,
2013-01-24 03:32:00,15.4,6.0,30.50,North,355,4.0,13.0,65,0.00,,,0.00,weatherlink.com 1.10,2013-01-24 09:32:00,
2013-01-24 03:47:00,14.7,5.0,30.51,NNE,22,9.0,15.0,66,0.00,,,0.00,weatherlink.com 1.10,2013-01-24 09:47:00,
2013-01-24 04:02:00,14.3,5.0,30.52,NNE,15,4.0,16.0,66,0.00,,,0.00,weatherlink.com 1.10,2013-01-24 10:02:00,
2013-01-24 04:17:00,13.7,5.0,30.52,North,5,8.0,13.0,68,0.00,,,0.00,weatherlink.com 1.10,2013-01-24 10:17:00,
2013-01-24 04:32:00,13.2,5.0,30.52,NNE,31,6.0,13.0,70,0.00,,,0.00,weatherlink.com 1.10,2013-01-24 10:32:00,
2013-01-24 04:47:00,12.9,5.0,30.53,North,355,8.0,19.0,70,0.00,,,0.00,weatherlink.com 1.10,2013-01-24 10:47:00,
2013-01-24 05:02:00,12.5,5.0,30.53,NNE,27,2.0,14.0,71,0.00,,,0.00,weatherlink.com 1.10,2013-01-24 11:02:00,
2013-01-24 05:17:00,12.2,4.0,30.54,NNE,23,14.0,16.0,71,0.00,,,0.00,weatherlink.com 1.10,2013-01-24 11:17:00,
2013-01-24 05:32:00,11.8,4.0,30.54,NE,40,16.0,19.0,70,0.00,,,0.00,weatherlink.com 1.10,2013-01-24 11:32:00,
2013-01-24 05:47:00,11.5,4.0,30.54,NE,34,10.0,17.0,70,0.00,,,0.00,weatherlink.com 1.10,2013-01-24 11:47:00,
2013-01-24 06:02:00,11.3,3.0,30.55,NNE,27,12.0,17.0,70,0.00,,,0.00,weatherlink.com 1.10,2013-01-24 12:02:00,
2013-01-24 06:18:00,11.2,3.0,30.54,NNE,17,8.0,16.0,70,0.00,,,0.00,weatherlink.com 1.10,2013-01-24 12:18:00,
2013-01-24 06:33:00,11.0,3.0,30.54,NNE,21,9.0,15.0,71,0.00,,,0.00,weatherlink.com 1.10,2013-01-24 12:33:00,
2013-01-24 06:48:00,10.9,3.0,30.54,NE,34,6.0,17.0,71,0.00,,,0.00,weatherlink.com 1.10,2013-01-24 12:48:00,
2013-01-24 07:03:00,10.7,3.0,30.55,NNE,30,7.0,14.0,71,0.00,,,0.00,weatherlink.com 1.10,2013-01-24 13:03:00,
2013-01-24 07:18:00,10.6,3.0,30.55,NNE,32,9.0,12.0,72,0.00,,,0.00,weatherlink.com 1.10,2013-01-24 13:18:00,
2013-01-24 07:33:00,10.6,4.0,30.55,NE,44,11.0,11.0,73,0.00,,,0.00,weatherlink.com 1.10,2013-01-24 13:33:00,
2013-01-24 07:48:00,10.7,4.0,30.56,NE,55,5.0,11.0,73,0.00,,,0.00,weatherlink.com 1.10,2013-01-24 13:48:00,
2013-01-24 08:03:00,10.9,4.0,30.56,NE,34,6.0,15.0,73,0.00,,,0.00,weatherlink.com 1.10,2013-01-24 14:03:00,
2013-01-24 08:18:00,11.2,4.0,30.56,ENE,64,7.0,15.0,72,0.00,,,0.00,weatherlink.com 1.10,2013-01-24 14:18:00,
2013-01-24 08:33:00,11.6,4.0,30.56,NE,36,8.0,15.0,72,0.00,,,0.00,weatherlink.com 1.10,2013-01-24 14:33:00,
2013-01-24 09:03:00,12.5,5.0,30.57,ENE,63,8.0,15.0,71,0.00,,,0.00,weatherlink.com 1.10,2013-01-24 15:03:00,
2013-01-24 09:18:00,13.1,5.0,30.57,NE,51,7.0,14.0,71,0.00,,,0.00,weatherlink.com 1.10,2013-01-24 15:18:00,
2013-01-24 09:33:00,13.8,5.0,30.59,NE,52,9.0,15.0,68,0.00,,,0.00,weatherlink.com 1.10,2013-01-24 15:33:00,
2013-01-24 09:49:00,14.6,5.0,30.59,East,88,7.0,13.0,66,0.00,,,0.00,weatherlink.com 1.10,2013-01-24 15:49:00,
2013-01-24 10:04:00,15.0,5.0,30.60,ENE,57,8.0,13.0,66,0.00,,,0.00,weatherlink.com 1.10,2013-01-24 16:04:00,
2013-01-24 10:19:00,15.7,5.0,30.59,East,100,8.0,16.0,64,0.00,,,0.00,weatherlink.com 1.10,2013-01-24 16:19:00,
2013-01-24 10:34:00,15.9,6.0,30.59,NE,55,10.0,15.0,64,0.00,,,0.00,weatherlink.com 1.10,2013-01-24 16:34:00,
2013-01-24 10:49:00,17.7,6.0,30.57,ENE,63,12.0,16.0,61,0.00,,,0.00,weatherlink.com 1.10,2013-01-24 16:49:00,
2013-01-24 11:04:00,17.6,6.0,30.57,NE,42,9.0,16.0,61,0.00,,,0.00,weatherlink.com 1.10,2013-01-24 17:04:00,
2013-01-24 11:19:00,19.0,6.0,30.57,ENE,60,16.0,17.0,58,0.00,,,0.00,weatherlink.com 1.10,2013-01-24 17:19:00,
2013-01-24 11:34:00,18.4,6.0,30.55,East,88,6.0,15.0,59,0.00,,,0.00,weatherlink.com 1.10,2013-01-24 17:34:00,
2013-01-24 11:49:00,19.4,6.0,30.53,SE,128,5.0,16.0,57,0.00,,,0.00,weatherlink.com 1.10,2013-01-24 17:49:00,
2013-01-24 12:04:00,19.5,7.0,30.52,NE,48,12.0,15.0,58,0.00,,,0.00,weatherlink.com 1.10,2013-01-24 18:04:00,
2013-01-24 12:19:00,20.4,6.0,30.50,NE,52,9.0,15.0,55,0.00,,,0.00,weatherlink.com 1.10,2013-01-24 18:19:00,
2013-01-24 12:34:00,21.1,7.0,30.49,ENE,78,8.0,16.0,54,0.00,,,0.00,weatherlink.com 1.10,2013-01-24 18:34:00,
2013-01-24 12:49:00,21.2,6.0,30.50,East,91,8.0,13.0,52,0.00,,,0.00,weatherlink.com 1.10,2013-01-24 18:49:00,
2013-01-24 13:05:00,21.7,6.0,30.49,ESE,105,9.0,14.0,51,0.00,,,0.00,weatherlink.com 1.10,2013-01-24 19:05:00,
2013-01-24 13:20:00,22.2,6.0,30.48,ESE,104,8.0,10.0,49,0.00,,,0.00,weatherlink.com 1.10,2013-01-24 19:20:00,
2013-01-24 13:35:00,22.2,6.0,30.47,NE,51,10.0,13.0,50,0.00,,,0.00,weatherlink.com 1.10,2013-01-24 19:35:00,
2013-01-24 13:50:00,22.7,6.0,30.46,NE,44,6.0,13.0,49,0.00,,,0.00,weatherlink.com 1.10,2013-01-24 19:50:00,
2013-01-24 14:05:00,23.1,6.0,30.45,SE,140,8.0,17.0,48,0.00,,,0.00,weatherlink.com 1.10,2013-01-24 20:05:00,
2013-01-24 14:20:00,23.4,5.0,30.44,ESE,109,8.0,14.0,46,0.00,,,0.00,weatherlink.com 1.10,2013-01-24 20:20:00,
2013-01-24 14:35:00,23.6,5.0,30.42,ESE,108,9.0,13.0,46,0.00,,,0.00,weatherlink.com 1.10,2013-01-24 20:35:00,
2013-01-24 14:50:00,23.3,5.0,30.42,ESE,110,5.0,13.0,45,0.00,,,0.00,weatherlink.com 1.10,2013-01-24 20:50:00,
2013-01-24 15:05:00,23.6,4.0,30.41,SE,136,8.0,16.0,43,0.00,,,0.00,weatherlink.com 1.10,2013-01-24 21:05:00,
2013-01-24 15:20:00,23.8,4.0,30.41,East,95,9.0,10.0,42,0.00,,,0.00,weatherlink.com 1.10,2013-01-24 21:20:00,
2013-01-24 15:35:00,23.5,3.0,30.41,SE,134,7.0,14.0,42,0.00,,,0.00,weatherlink.com 1.10,2013-01-24 21:35:00,
2013-01-24 15:50:00,23.4,3.0,30.41,NE,52,8.0,16.0,41,0.00,,,0.00,weatherlink.com 1.10,2013-01-24 21:50:00,
2013-01-24 16:05:00,23.4,3.0,30.40,ESE,119,8.0,16.0,41,0.00,,,0.00,weatherlink.com 1.10,2013-01-24 22:05:00,
2013-01-24 16:20:00,23.1,3.0,30.39,ENE,74,9.0,17.0,42,0.00,,,0.00,weatherlink.com 1.10,2013-01-24 22:20:00,
2013-01-24 16:36:00,23.1,4.0,30.39,East,101,15.0,18.0,43,0.00,,,0.00,weatherlink.com 1.10,2013-01-24 22:36:00,
2013-01-24 16:51:00,23.0,3.0,30.38,ESE,103,13.0,16.0,43,0.00,,,0.00,weatherlink.com 1.10,2013-01-24 22:51:00,
2013-01-24 17:06:00,22.9,3.0,30.38,ENE,76,3.0,13.0,43,0.00,,,0.00,weatherlink.com 1.10,2013-01-24 23:06:00,
2013-01-24 17:21:00,22.8,5.0,30.37,SE,138,13.0,19.0,46,0.00,,,0.00,weatherlink.com 1.10,2013-01-24 23:21:00,
2013-01-24 17:36:00,22.7,5.0,30.37,East,94,7.0,13.0,46,0.00,,,0.00,weatherlink.com 1.10,2013-01-24 23:36:00,
2013-01-24 17:51:00,22.8,6.0,30.36,ESE,119,4.0,12.0,48,0.00,,,0.00,weatherlink.com 1.10,2013-01-24 23:51:00,
2013-01-24 18:06:00,22.9,6.0,30.36,NE,45,9.0,13.0,48,0.00,,,0.00,weatherlink.com 1.10,2013-01-25 00:06:00,
2013-01-24 18:21:00,23.0,6.0,30.36,ESE,121,8.0,17.0,48,0.00,,,0.00,weatherlink.com 1.10,2013-01-25 00:21:00,
2013-01-24 18:36:00,23.1,6.0,30.36,ESE,114,13.0,14.0,49,0.00,,,0.00,weatherlink.com 1.10,2013-01-25 00:36:00,
2013-01-24 18:51:00,23.2,7.0,30.36,ESE,105,8.0,12.0,49,0.00,,,0.00,weatherlink.com 1.10,2013-01-25 00:51:00,
2013-01-24 19:06:00,23.3,7.0,30.34,SE,124,8.0,13.0,50,0.00,,,0.00,weatherlink.com 1.10,2013-01-25 01:06:00,
2013-01-24 19:21:00,23.4,7.0,30.34,East,97,8.0,11.0,50,0.00,,,0.00,weatherlink.com 1.10,2013-01-25 01:21:00,
2013-01-24 19:36:00,23.5,8.0,30.34,ESE,108,8.0,13.0,51,0.00,,,0.00,weatherlink.com 1.10,2013-01-25 01:36:00,
2013-01-24 19:52:00,23.6,8.0,30.33,ESE,107,9.0,13.0,52,0.00,,,0.00,weatherlink.com 1.10,2013-01-25 01:52:00,
2013-01-24 20:07:00,23.7,8.0,30.32,ESE,102,13.0,15.0,52,0.00,,,0.00,weatherlink.com 1.10,2013-01-25 02:07:00,
2013-01-24 20:37:00,23.8,9.0,30.31,ESE,112,8.0,13.0,54,0.00,,,0.00,weatherlink.com 1.10,2013-01-25 02:37:00,
2013-01-24 20:52:00,24.0,9.0,30.34,SE,130,9.0,13.0,54,0.00,,,0.00,weatherlink.com 1.10,2013-01-25 02:52:00,
2013-01-24 21:07:00,24.0,9.0,30.30,South,171,5.0,14.0,54,0.00,,,0.00,weatherlink.com 1.10,2013-01-25 03:07:00,
2013-01-24 21:22:00,24.1,10.0,30.29,SSE,148,10.0,16.0,54,0.00,,,0.00,weatherlink.com 1.10,2013-01-25 03:22:00,
2013-01-24 21:37:00,24.2,10.0,30.30,ENE,74,3.0,11.0,54,0.00,,,0.00,weatherlink.com 1.10,2013-01-25 03:37:00,
2013-01-24 21:52:00,24.3,10.0,30.29,SE,139,7.0,10.0,54,0.00,,,0.00,weatherlink.com 1.10,2013-01-25 03:52:00,
2013-01-24 22:07:00,24.4,10.0,30.27,SE,126,8.0,14.0,55,0.00,,,0.00,weatherlink.com 1.10,2013-01-25 04:07:00,
2013-01-24 22:22:00,24.6,10.0,30.27,SE,132,10.0,15.0,55,0.00,,,0.00,weatherlink.com 1.10,2013-01-25 04:22:00,
2013-01-24 22:37:00,24.9,10.0,30.28,SSE,153,6.0,14.0,53,0.00,,,0.00,weatherlink.com 1.10,2013-01-25 04:37:00,
2013-01-24 22:52:00,25.0,10.0,30.27,SSE,167,5.0,12.0,53,0.00,,,0.00,weatherlink.com 1.10,2013-01-25 04:52:00,
2013-01-24 23:07:00,25.1,10.0,30.26,SE,143,6.0,10.0,54,0.00,,,0.00,weatherlink.com 1.10,2013-01-25 05:07:00,
2013-01-24 23:23:00,25.2,11.0,30.27,ESE,108,3.0,8.0,54,0.00,,,0.00,weatherlink.com 1.10,2013-01-25 05:23:00,
2013-01-24 23:38:00,25.2,11.0,30.26,East,101,8.0,9.0,54,0.00,,,0.00,weatherlink.com 1.10,2013-01-25 05:38:00,
2013-01-24 23:53:00,25.2,11.0,30.26,SE,137,4.0,5.0,55,0.00,,,0.00,weatherlink.com 1.10,2013-01-25 05:53:00,